sensor_id;sensor_type;location;lat;lon;timestamp;P1;durP1;ratioP1;P2;durP2;ratioP2
21337;SDS011;72379;50.880;4.350;2023-09-07T00:01:31;10.93;;;7.78;;
21337;SDS011;72379;50.880;4.350;2023-09-07T00:03:57;13.90;;;7.95;;
21337;SDS011;72379;50.880;4.350;2023-09-07T00:06:23;15.95;;;8.93;;
21337;SDS011;72379;50.880;4.350;2023-09-07T00:08:50;15.32;;;8.20;;
21337;SDS011;72379;50.880;4.350;2023-09-07T00:11:16;12.02;;;8.35;;
21337;SDS011;72379;50.880;4.350;2023-09-07T00:13:43;14.07;;;7.70;;
21337;SDS011;72379;50.880;4.350;2023-09-07T00:16:09;15.38;;;8.10;;
21337;SDS011;72379;50.880;4.350;2023-09-07T00:18:34;11.63;;;8.50;;
21337;SDS011;72379;50.880;4.350;2023-09-07T00:21:00;13.88;;;8.45;;
21337;SDS011;72379;50.880;4.350;2023-09-07T00:23:26;13.55;;;8.43;;
21337;SDS011;72379;50.880;4.350;2023-09-07T00:25:54;12.88;;;7.93;;
21337;SDS011;72379;50.880;4.350;2023-09-07T00:28:19;15.45;;;8.73;;
21337;SDS011;72379;50.880;4.350;2023-09-07T00:30:46;12.32;;;8.45;;
21337;SDS011;72379;50.880;4.350;2023-09-07T00:33:12;12.82;;;8.48;;
21337;SDS011;72379;50.880;4.350;2023-09-07T00:35:38;10.85;;;7.80;;
21337;SDS011;72379;50.880;4.350;2023-09-07T00:38:04;12.43;;;8.73;;
21337;SDS011;72379;50.880;4.350;2023-09-07T00:40:30;14.02;;;8.73;;
21337;SDS011;72379;50.880;4.350;2023-09-07T00:42:55;13.77;;;7.90;;
21337;SDS011;72379;50.880;4.350;2023-09-07T00:45:21;16.48;;;9.30;;
21337;SDS011;72379;50.880;4.350;2023-09-07T00:47:48;14.15;;;8.70;;
21337;SDS011;72379;50.880;4.350;2023-09-07T00:50:14;16.35;;;8.40;;
21337;SDS011;72379;50.880;4.350;2023-09-07T00:52:44;12.85;;;8.40;;
21337;SDS011;72379;50.880;4.350;2023-09-07T00:55:12;18.50;;;8.00;;
21337;SDS011;72379;50.880;4.350;2023-09-07T00:57:38;11.68;;;8.73;;
21337;SDS011;72379;50.880;4.350;2023-09-07T01:00:04;20.35;;;8.55;;
21337;SDS011;72379;50.880;4.350;2023-09-07T01:02:32;13.75;;;8.18;;
21337;SDS011;72379;50.880;4.350;2023-09-07T01:04:58;11.85;;;9.02;;
21337;SDS011;72379;50.880;4.350;2023-09-07T01:07:25;12.23;;;8.38;;
21337;SDS011;72379;50.880;4.350;2023-09-07T01:10:01;14.07;;;8.73;;
21337;SDS011;72379;50.880;4.350;2023-09-07T01:12:27;17.08;;;8.13;;
21337;SDS011;72379;50.880;4.350;2023-09-07T01:14:53;13.27;;;8.10;;
21337;SDS011;72379;50.880;4.350;2023-09-07T01:17:19;18.42;;;8.77;;
21337;SDS011;72379;50.880;4.350;2023-09-07T01:19:47;13.27;;;8.52;;
21337;SDS011;72379;50.880;4.350;2023-09-07T01:22:15;17.70;;;8.30;;
21337;SDS011;72379;50.880;4.350;2023-09-07T01:24:42;9.45;;;8.23;;
21337;SDS011;72379;50.880;4.350;2023-09-07T01:27:10;13.27;;;7.80;;
21337;SDS011;72379;50.880;4.350;2023-09-07T01:29:38;13.90;;;8.55;;
21337;SDS011;72379;50.880;4.350;2023-09-07T01:32:04;11.88;;;8.07;;
21337;SDS011;72379;50.880;4.350;2023-09-07T01:34:31;13.38;;;8.25;;
21337;SDS011;72379;50.880;4.350;2023-09-07T01:36:57;11.35;;;8.30;;
21337;SDS011;72379;50.880;4.350;2023-09-07T01:39:23;11.15;;;7.97;;
21337;SDS011;72379;50.880;4.350;2023-09-07T01:41:49;13.40;;;8.35;;
21337;SDS011;72379;50.880;4.350;2023-09-07T01:44:15;13.25;;;8.80;;
21337;SDS011;72379;50.880;4.350;2023-09-07T01:46:40;16.05;;;8.30;;
21337;SDS011;72379;50.880;4.350;2023-09-07T01:49:06;11.60;;;8.52;;
21337;SDS011;72379;50.880;4.350;2023-09-07T01:51:32;13.43;;;8.30;;
21337;SDS011;72379;50.880;4.350;2023-09-07T01:53:59;15.77;;;7.93;;
21337;SDS011;72379;50.880;4.350;2023-09-07T01:56:25;12.98;;;8.23;;
21337;SDS011;72379;50.880;4.350;2023-09-07T01:58:51;13.00;;;8.20;;
21337;SDS011;72379;50.880;4.350;2023-09-07T02:01:24;12.40;;;7.82;;
21337;SDS011;72379;50.880;4.350;2023-09-07T02:03:51;11.63;;;7.95;;
21337;SDS011;72379;50.880;4.350;2023-09-07T02:06:17;16.33;;;8.30;;
21337;SDS011;72379;50.880;4.350;2023-09-07T02:08:43;11.20;;;7.88;;
21337;SDS011;72379;50.880;4.350;2023-09-07T02:11:09;12.75;;;8.68;;
21337;SDS011;72379;50.880;4.350;2023-09-07T02:13:35;10.27;;;7.90;;
21337;SDS011;72379;50.880;4.350;2023-09-07T02:16:05;11.07;;;8.00;;
21337;SDS011;72379;50.880;4.350;2023-09-07T02:18:33;12.38;;;8.10;;
21337;SDS011;72379;50.880;4.350;2023-09-07T02:21:01;13.18;;;8.55;;
21337;SDS011;72379;50.880;4.350;2023-09-07T02:23:33;13.45;;;8.02;;
21337;SDS011;72379;50.880;4.350;2023-09-07T02:25:59;11.52;;;7.65;;
21337;SDS011;72379;50.880;4.350;2023-09-07T02:28:25;13.98;;;8.10;;
21337;SDS011;72379;50.880;4.350;2023-09-07T02:30:53;11.75;;;8.00;;
21337;SDS011;72379;50.880;4.350;2023-09-07T02:33:19;10.20;;;7.75;;
21337;SDS011;72379;50.880;4.350;2023-09-07T02:35:47;10.50;;;7.40;;
21337;SDS011;72379;50.880;4.350;2023-09-07T02:38:13;11.38;;;8.45;;
21337;SDS011;72379;50.880;4.350;2023-09-07T02:40:40;11.60;;;8.13;;
21337;SDS011;72379;50.880;4.350;2023-09-07T02:43:09;12.40;;;7.70;;
21337;SDS011;72379;50.880;4.350;2023-09-07T02:45:35;12.35;;;8.32;;
21337;SDS011;72379;50.880;4.350;2023-09-07T02:48:01;16.33;;;8.48;;
21337;SDS011;72379;50.880;4.350;2023-09-07T02:50:32;16.10;;;8.73;;
21337;SDS011;72379;50.880;4.350;2023-09-07T02:52:58;16.10;;;8.15;;
21337;SDS011;72379;50.880;4.350;2023-09-07T02:55:25;14.40;;;8.80;;
21337;SDS011;72379;50.880;4.350;2023-09-07T02:57:51;13.98;;;8.80;;
21337;SDS011;72379;50.880;4.350;2023-09-07T03:00:16;12.15;;;8.63;;
21337;SDS011;72379;50.880;4.350;2023-09-07T03:02:43;13.43;;;8.10;;
21337;SDS011;72379;50.880;4.350;2023-09-07T03:05:09;15.35;;;8.18;;
21337;SDS011;72379;50.880;4.350;2023-09-07T03:07:35;11.18;;;8.20;;
21337;SDS011;72379;50.880;4.350;2023-09-07T03:10:01;11.05;;;8.25;;
21337;SDS011;72379;50.880;4.350;2023-09-07T03:12:27;13.48;;;8.52;;
21337;SDS011;72379;50.880;4.350;2023-09-07T03:14:53;15.77;;;8.00;;
21337;SDS011;72379;50.880;4.350;2023-09-07T03:17:19;16.20;;;8.82;;
21337;SDS011;72379;50.880;4.350;2023-09-07T03:19:46;13.52;;;8.82;;
21337;SDS011;72379;50.880;4.350;2023-09-07T03:22:12;13.00;;;8.48;;
21337;SDS011;72379;50.880;4.350;2023-09-07T03:24:38;14.90;;;8.85;;
21337;SDS011;72379;50.880;4.350;2023-09-07T03:27:04;12.02;;;7.93;;
21337;SDS011;72379;50.880;4.350;2023-09-07T03:29:32;14.27;;;7.95;;
21337;SDS011;72379;50.880;4.350;2023-09-07T03:32:00;13.32;;;8.57;;
21337;SDS011;72379;50.880;4.350;2023-09-07T03:34:26;12.25;;;8.43;;
21337;SDS011;72379;50.880;4.350;2023-09-07T03:36:52;14.63;;;8.20;;
21337;SDS011;72379;50.880;4.350;2023-09-07T03:39:18;16.65;;;8.57;;
21337;SDS011;72379;50.880;4.350;2023-09-07T03:41:47;12.40;;;8.23;;
21337;SDS011;72379;50.880;4.350;2023-09-07T03:44:13;11.93;;;7.70;;
21337;SDS011;72379;50.880;4.350;2023-09-07T03:46:40;14.63;;;8.85;;
21337;SDS011;72379;50.880;4.350;2023-09-07T03:49:06;17.08;;;8.95;;
21337;SDS011;72379;50.880;4.350;2023-09-07T03:51:32;15.45;;;9.65;;
21337;SDS011;72379;50.880;4.350;2023-09-07T03:53:59;16.77;;;9.88;;
21337;SDS011;72379;50.880;4.350;2023-09-07T03:56:25;12.43;;;8.60;;
21337;SDS011;72379;50.880;4.350;2023-09-07T03:58:51;13.00;;;8.10;;
21337;SDS011;72379;50.880;4.350;2023-09-07T04:01:17;12.85;;;8.02;;
21337;SDS011;72379;50.880;4.350;2023-09-07T04:03:43;13.77;;;9.52;;
21337;SDS011;72379;50.880;4.350;2023-09-07T04:06:09;15.73;;;10.23;;
21337;SDS011;72379;50.880;4.350;2023-09-07T04:08:35;14.52;;;8.85;;
21337;SDS011;72379;50.880;4.350;2023-09-07T04:11:05;13.23;;;7.65;;
21337;SDS011;72379;50.880;4.350;2023-09-07T04:13:32;13.05;;;8.35;;
21337;SDS011;72379;50.880;4.350;2023-09-07T04:15:59;13.10;;;7.95;;
21337;SDS011;72379;50.880;4.350;2023-09-07T04:18:25;17.45;;;8.60;;
21337;SDS011;72379;50.880;4.350;2023-09-07T04:20:50;12.52;;;8.55;;
21337;SDS011;72379;50.880;4.350;2023-09-07T04:23:16;13.75;;;9.07;;
21337;SDS011;72379;50.880;4.350;2023-09-07T04:25:43;15.45;;;9.38;;
21337;SDS011;72379;50.880;4.350;2023-09-07T04:28:10;16.63;;;9.43;;
21337;SDS011;72379;50.880;4.350;2023-09-07T04:30:39;15.27;;;9.00;;
21337;SDS011;72379;50.880;4.350;2023-09-07T04:33:06;19.48;;;8.93;;
21337;SDS011;72379;50.880;4.350;2023-09-07T04:35:32;17.13;;;9.18;;
21337;SDS011;72379;50.880;4.350;2023-09-07T04:37:59;37.08;;;19.10;;
21337;SDS011;72379;50.880;4.350;2023-09-07T04:40:26;19.85;;;10.63;;
21337;SDS011;72379;50.880;4.350;2023-09-07T04:42:52;13.98;;;8.85;;
21337;SDS011;72379;50.880;4.350;2023-09-07T04:45:18;16.08;;;9.32;;
21337;SDS011;72379;50.880;4.350;2023-09-07T04:47:44;18.90;;;10.02;;
21337;SDS011;72379;50.880;4.350;2023-09-07T04:50:10;20.58;;;9.10;;
21337;SDS011;72379;50.880;4.350;2023-09-07T04:52:35;19.25;;;8.25;;
21337;SDS011;72379;50.880;4.350;2023-09-07T04:55:01;22.73;;;10.20;;
21337;SDS011;72379;50.880;4.350;2023-09-07T04:57:29;16.00;;;8.70;;
21337;SDS011;72379;50.880;4.350;2023-09-07T04:59:56;16.77;;;9.50;;
21337;SDS011;72379;50.880;4.350;2023-09-07T05:02:21;24.95;;;9.82;;
21337;SDS011;72379;50.880;4.350;2023-09-07T05:04:47;19.08;;;9.48;;
21337;SDS011;72379;50.880;4.350;2023-09-07T05:07:15;27.20;;;8.65;;
21337;SDS011;72379;50.880;4.350;2023-09-07T05:09:41;21.88;;;8.98;;
21337;SDS011;72379;50.880;4.350;2023-09-07T05:12:07;19.80;;;9.88;;
21337;SDS011;72379;50.880;4.350;2023-09-07T05:14:32;23.83;;;9.82;;
21337;SDS011;72379;50.880;4.350;2023-09-07T05:16:58;17.27;;;9.32;;
21337;SDS011;72379;50.880;4.350;2023-09-07T05:19:24;23.98;;;9.88;;
21337;SDS011;72379;50.880;4.350;2023-09-07T05:21:49;19.17;;;10.40;;
21337;SDS011;72379;50.880;4.350;2023-09-07T05:24:15;31.80;;;12.98;;
21337;SDS011;72379;50.880;4.350;2023-09-07T05:26:43;24.27;;;10.95;;
21337;SDS011;72379;50.880;4.350;2023-09-07T05:29:09;22.65;;;12.63;;
21337;SDS011;72379;50.880;4.350;2023-09-07T05:31:35;20.75;;;11.90;;
21337;SDS011;72379;50.880;4.350;2023-09-07T05:34:00;21.50;;;11.13;;
21337;SDS011;72379;50.880;4.350;2023-09-07T05:36:26;27.67;;;11.02;;
21337;SDS011;72379;50.880;4.350;2023-09-07T05:38:52;26.55;;;10.90;;
21337;SDS011;72379;50.880;4.350;2023-09-07T05:41:18;23.08;;;10.75;;
21337;SDS011;72379;50.880;4.350;2023-09-07T05:43:44;21.90;;;10.85;;
21337;SDS011;72379;50.880;4.350;2023-09-07T05:46:10;22.80;;;10.50;;
21337;SDS011;72379;50.880;4.350;2023-09-07T05:48:36;22.55;;;10.48;;
21337;SDS011;72379;50.880;4.350;2023-09-07T05:51:02;26.85;;;11.27;;
21337;SDS011;72379;50.880;4.350;2023-09-07T05:53:28;22.70;;;10.57;;
21337;SDS011;72379;50.880;4.350;2023-09-07T05:55:54;27.45;;;12.20;;
21337;SDS011;72379;50.880;4.350;2023-09-07T05:58:20;35.83;;;12.32;;
21337;SDS011;72379;50.880;4.350;2023-09-07T06:00:46;25.98;;;11.65;;
21337;SDS011;72379;50.880;4.350;2023-09-07T06:03:12;25.33;;;12.23;;
21337;SDS011;72379;50.880;4.350;2023-09-07T06:05:38;30.00;;;12.40;;
21337;SDS011;72379;50.880;4.350;2023-09-07T06:08:04;23.15;;;11.82;;
21337;SDS011;72379;50.880;4.350;2023-09-07T06:10:33;32.85;;;11.25;;
21337;SDS011;72379;50.880;4.350;2023-09-07T06:12:59;22.95;;;11.30;;
21337;SDS011;72379;50.880;4.350;2023-09-07T06:15:25;31.90;;;11.50;;
21337;SDS011;72379;50.880;4.350;2023-09-07T06:17:52;24.35;;;12.52;;
21337;SDS011;72379;50.880;4.350;2023-09-07T06:20:19;24.75;;;11.27;;
21337;SDS011;72379;50.880;4.350;2023-09-07T06:22:45;27.42;;;11.40;;
21337;SDS011;72379;50.880;4.350;2023-09-07T06:25:11;24.73;;;11.73;;
21337;SDS011;72379;50.880;4.350;2023-09-07T06:27:36;28.65;;;12.05;;
21337;SDS011;72379;50.880;4.350;2023-09-07T06:30:03;22.10;;;11.43;;
21337;SDS011;72379;50.880;4.350;2023-09-07T06:32:31;30.42;;;11.50;;
21337;SDS011;72379;50.880;4.350;2023-09-07T06:34:57;22.17;;;10.88;;
21337;SDS011;72379;50.880;4.350;2023-09-07T06:37:23;23.70;;;12.35;;
21337;SDS011;72379;50.880;4.350;2023-09-07T06:39:49;22.95;;;11.55;;
21337;SDS011;72379;50.880;4.350;2023-09-07T06:42:15;29.48;;;12.02;;
21337;SDS011;72379;50.880;4.350;2023-09-07T06:44:41;27.95;;;12.15;;
21337;SDS011;72379;50.880;4.350;2023-09-07T06:47:08;29.20;;;12.65;;
21337;SDS011;72379;50.880;4.350;2023-09-07T06:49:33;26.48;;;12.55;;
21337;SDS011;72379;50.880;4.350;2023-09-07T06:52:00;32.72;;;13.40;;
21337;SDS011;72379;50.880;4.350;2023-09-07T06:54:27;23.52;;;12.32;;
21337;SDS011;72379;50.880;4.350;2023-09-07T06:56:53;28.15;;;11.02;;
21337;SDS011;72379;50.880;4.350;2023-09-07T06:59:19;24.05;;;10.60;;
21337;SDS011;72379;50.880;4.350;2023-09-07T07:01:45;20.75;;;11.00;;
21337;SDS011;72379;50.880;4.350;2023-09-07T07:04:11;18.48;;;10.40;;
21337;SDS011;72379;50.880;4.350;2023-09-07T07:06:38;22.30;;;11.20;;
21337;SDS011;72379;50.880;4.350;2023-09-07T07:09:05;19.52;;;9.98;;
21337;SDS011;72379;50.880;4.350;2023-09-07T07:11:31;24.15;;;9.85;;
21337;SDS011;72379;50.880;4.350;2023-09-07T07:13:57;18.08;;;10.13;;
21337;SDS011;72379;50.880;4.350;2023-09-07T07:16:22;20.60;;;9.55;;
21337;SDS011;72379;50.880;4.350;2023-09-07T07:18:48;14.82;;;9.07;;
21337;SDS011;72379;50.880;4.350;2023-09-07T07:21:14;14.25;;;8.85;;
21337;SDS011;72379;50.880;4.350;2023-09-07T07:23:40;17.13;;;8.13;;
21337;SDS011;72379;50.880;4.350;2023-09-07T07:26:07;14.52;;;8.75;;
21337;SDS011;72379;50.880;4.350;2023-09-07T07:28:34;14.80;;;9.00;;
21337;SDS011;72379;50.880;4.350;2023-09-07T07:31:06;11.75;;;8.95;;
21337;SDS011;72379;50.880;4.350;2023-09-07T07:33:33;12.38;;;8.63;;
21337;SDS011;72379;50.880;4.350;2023-09-07T07:35:59;15.35;;;8.32;;
21337;SDS011;72379;50.880;4.350;2023-09-07T07:38:25;12.05;;;8.02;;
21337;SDS011;72379;50.880;4.350;2023-09-07T07:40:52;14.18;;;7.60;;
21337;SDS011;72379;50.880;4.350;2023-09-07T07:43:18;11.85;;;7.32;;
21337;SDS011;72379;50.880;4.350;2023-09-07T07:45:44;11.68;;;6.78;;
21337;SDS011;72379;50.880;4.350;2023-09-07T07:48:10;15.20;;;7.22;;
21337;SDS011;72379;50.880;4.350;2023-09-07T07:50:39;10.48;;;7.40;;
21337;SDS011;72379;50.880;4.350;2023-09-07T07:53:05;12.05;;;7.53;;
21337;SDS011;72379;50.880;4.350;2023-09-07T07:55:35;13.25;;;7.72;;
21337;SDS011;72379;50.880;4.350;2023-09-07T07:58:05;12.68;;;7.63;;
21337;SDS011;72379;50.880;4.350;2023-09-07T08:00:37;11.77;;;7.53;;
21337;SDS011;72379;50.880;4.350;2023-09-07T08:03:04;11.45;;;7.68;;
21337;SDS011;72379;50.880;4.350;2023-09-07T08:05:33;10.45;;;7.00;;
21337;SDS011;72379;50.880;4.350;2023-09-07T08:07:59;13.25;;;7.53;;
21337;SDS011;72379;50.880;4.350;2023-09-07T08:10:25;10.13;;;6.95;;
21337;SDS011;72379;50.880;4.350;2023-09-07T08:12:53;10.07;;;6.95;;
21337;SDS011;72379;50.880;4.350;2023-09-07T08:15:19;11.88;;;7.22;;
21337;SDS011;72379;50.880;4.350;2023-09-07T08:17:47;9.95;;;6.97;;
21337;SDS011;72379;50.880;4.350;2023-09-07T08:20:13;9.27;;;6.85;;
21337;SDS011;72379;50.880;4.350;2023-09-07T08:22:40;9.32;;;5.88;;
21337;SDS011;72379;50.880;4.350;2023-09-07T08:25:07;12.73;;;6.55;;
21337;SDS011;72379;50.880;4.350;2023-09-07T08:27:34;13.35;;;6.30;;
21337;SDS011;72379;50.880;4.350;2023-09-07T08:29:59;9.13;;;6.00;;
21337;SDS011;72379;50.880;4.350;2023-09-07T08:32:25;13.90;;;6.28;;
21337;SDS011;72379;50.880;4.350;2023-09-07T08:34:51;10.52;;;6.88;;
21337;SDS011;72379;50.880;4.350;2023-09-07T08:37:23;11.43;;;6.28;;
21337;SDS011;72379;50.880;4.350;2023-09-07T08:39:49;11.13;;;6.93;;
21337;SDS011;72379;50.880;4.350;2023-09-07T08:42:15;9.32;;;6.70;;
21337;SDS011;72379;50.880;4.350;2023-09-07T08:44:40;8.30;;;6.38;;
21337;SDS011;72379;50.880;4.350;2023-09-07T08:47:12;11.02;;;6.20;;
21337;SDS011;72379;50.880;4.350;2023-09-07T08:49:40;9.23;;;5.95;;
21337;SDS011;72379;50.880;4.350;2023-09-07T08:52:06;10.10;;;5.70;;
21337;SDS011;72379;50.880;4.350;2023-09-07T08:54:33;12.30;;;5.97;;
21337;SDS011;72379;50.880;4.350;2023-09-07T08:57:02;10.75;;;6.13;;
21337;SDS011;72379;50.880;4.350;2023-09-07T08:59:29;10.15;;;5.88;;
21337;SDS011;72379;50.880;4.350;2023-09-07T09:01:58;10.57;;;6.10;;
21337;SDS011;72379;50.880;4.350;2023-09-07T09:04:24;13.75;;;6.05;;
21337;SDS011;72379;50.880;4.350;2023-09-07T09:06:50;8.13;;;6.32;;
21337;SDS011;72379;50.880;4.350;2023-09-07T09:09:23;6.78;;;5.95;;
21337;SDS011;72379;50.880;4.350;2023-09-07T09:11:50;11.27;;;5.82;;
21337;SDS011;72379;50.880;4.350;2023-09-07T09:14:16;7.72;;;5.60;;
21337;SDS011;72379;50.880;4.350;2023-09-07T09:16:47;9.02;;;5.55;;
21337;SDS011;72379;50.880;4.350;2023-09-07T09:19:15;9.88;;;6.20;;
21337;SDS011;72379;50.880;4.350;2023-09-07T09:21:41;7.55;;;5.80;;
21337;SDS011;72379;50.880;4.350;2023-09-07T09:24:09;10.93;;;5.38;;
21337;SDS011;72379;50.880;4.350;2023-09-07T09:26:36;11.10;;;5.80;;
21337;SDS011;72379;50.880;4.350;2023-09-07T09:29:02;8.95;;;5.47;;
21337;SDS011;72379;50.880;4.350;2023-09-07T09:31:29;9.60;;;5.80;;
21337;SDS011;72379;50.880;4.350;2023-09-07T09:33:55;8.32;;;5.10;;
21337;SDS011;72379;50.880;4.350;2023-09-07T09:36:21;7.22;;;5.63;;
21337;SDS011;72379;50.880;4.350;2023-09-07T09:38:47;6.82;;;5.53;;
21337;SDS011;72379;50.880;4.350;2023-09-07T09:41:21;10.23;;;6.20;;
21337;SDS011;72379;50.880;4.350;2023-09-07T09:43:49;8.15;;;6.00;;
21337;SDS011;72379;50.880;4.350;2023-09-07T09:46:16;8.23;;;5.50;;
21337;SDS011;72379;50.880;4.350;2023-09-07T09:48:42;7.55;;;4.82;;
21337;SDS011;72379;50.880;4.350;2023-09-07T09:51:09;9.73;;;5.22;;
21337;SDS011;72379;50.880;4.350;2023-09-07T09:53:36;14.15;;;5.70;;
21337;SDS011;72379;50.880;4.350;2023-09-07T09:56:03;10.40;;;5.75;;
21337;SDS011;72379;50.880;4.350;2023-09-07T09:58:29;11.23;;;5.30;;
21337;SDS011;72379;50.880;4.350;2023-09-07T10:00:56;7.38;;;5.05;;
21337;SDS011;72379;50.880;4.350;2023-09-07T10:03:29;6.78;;;5.40;;
21337;SDS011;72379;50.880;4.350;2023-09-07T10:06:08;12.43;;;6.00;;
21337;SDS011;72379;50.880;4.350;2023-09-07T10:08:34;12.73;;;6.30;;
21337;SDS011;72379;50.880;4.350;2023-09-07T10:10:59;10.38;;;5.88;;
21337;SDS011;72379;50.880;4.350;2023-09-07T10:13:29;9.07;;;5.68;;
21337;SDS011;72379;50.880;4.350;2023-09-07T10:16:00;10.15;;;5.15;;
21337;SDS011;72379;50.880;4.350;2023-09-07T10:18:35;7.93;;;5.22;;
21337;SDS011;72379;50.880;4.350;2023-09-07T10:21:02;13.65;;;5.88;;
21337;SDS011;72379;50.880;4.350;2023-09-07T10:26:02;8.32;;;6.10;;
21337;SDS011;72379;50.880;4.350;2023-09-07T10:28:31;7.55;;;5.55;;
21337;SDS011;72379;50.880;4.350;2023-09-07T10:31:18;8.27;;;6.25;;
21337;SDS011;72379;50.880;4.350;2023-09-07T10:33:44;9.50;;;5.47;;
21337;SDS011;72379;50.880;4.350;2023-09-07T10:36:19;6.35;;;5.65;;
21337;SDS011;72379;50.880;4.350;2023-09-07T10:38:53;7.95;;;5.50;;
21337;SDS011;72379;50.880;4.350;2023-09-07T10:41:21;11.32;;;6.13;;
21337;SDS011;72379;50.880;4.350;2023-09-07T10:43:47;8.85;;;5.88;;
21337;SDS011;72379;50.880;4.350;2023-09-07T10:46:14;7.20;;;6.05;;
21337;SDS011;72379;50.880;4.350;2023-09-07T10:48:40;7.13;;;5.35;;
21337;SDS011;72379;50.880;4.350;2023-09-07T10:51:07;5.90;;;5.30;;
21337;SDS011;72379;50.880;4.350;2023-09-07T10:53:33;9.70;;;6.25;;
21337;SDS011;72379;50.880;4.350;2023-09-07T10:55:59;7.72;;;5.70;;
21337;SDS011;72379;50.880;4.350;2023-09-07T10:58:32;10.13;;;6.03;;
21337;SDS011;72379;50.880;4.350;2023-09-07T11:00:59;6.63;;;5.88;;
21337;SDS011;72379;50.880;4.350;2023-09-07T11:03:26;9.02;;;5.43;;
21337;SDS011;72379;50.880;4.350;2023-09-07T11:05:56;8.07;;;5.65;;
21337;SDS011;72379;50.880;4.350;2023-09-07T11:08:27;10.00;;;5.40;;
21337;SDS011;72379;50.880;4.350;2023-09-07T11:10:54;7.35;;;5.80;;
21337;SDS011;72379;50.880;4.350;2023-09-07T11:13:20;6.38;;;5.45;;
21337;SDS011;72379;50.880;4.350;2023-09-07T11:15:48;8.68;;;5.75;;
21337;SDS011;72379;50.880;4.350;2023-09-07T11:18:18;9.95;;;5.47;;
21337;SDS011;72379;50.880;4.350;2023-09-07T11:20:45;6.88;;;5.18;;
21337;SDS011;72379;50.880;4.350;2023-09-07T11:23:11;8.85;;;5.20;;
21337;SDS011;72379;50.880;4.350;2023-09-07T11:25:38;5.78;;;4.93;;
21337;SDS011;72379;50.880;4.350;2023-09-07T11:28:04;7.15;;;5.07;;
21337;SDS011;72379;50.880;4.350;2023-09-07T11:30:31;8.05;;;5.30;;
21337;SDS011;72379;50.880;4.350;2023-09-07T11:33:07;9.05;;;5.43;;
21337;SDS011;72379;50.880;4.350;2023-09-07T11:35:33;8.43;;;5.63;;
21337;SDS011;72379;50.880;4.350;2023-09-07T11:37:59;12.75;;;5.63;;
21337;SDS011;72379;50.880;4.350;2023-09-07T11:40:26;8.45;;;5.38;;
21337;SDS011;72379;50.880;4.350;2023-09-07T11:42:52;9.05;;;4.78;;
21337;SDS011;72379;50.880;4.350;2023-09-07T11:45:18;7.20;;;4.65;;
21337;SDS011;72379;50.880;4.350;2023-09-07T11:47:44;13.77;;;5.10;;
21337;SDS011;72379;50.880;4.350;2023-09-07T11:50:10;9.75;;;5.38;;
21337;SDS011;72379;50.880;4.350;2023-09-07T11:52:36;7.47;;;4.75;;
21337;SDS011;72379;50.880;4.350;2023-09-07T11:55:03;4.35;;;3.85;;
21337;SDS011;72379;50.880;4.350;2023-09-07T11:57:29;5.57;;;4.55;;
21337;SDS011;72379;50.880;4.350;2023-09-07T11:59:56;6.60;;;4.63;;
21337;SDS011;72379;50.880;4.350;2023-09-07T12:02:22;7.88;;;4.80;;
21337;SDS011;72379;50.880;4.350;2023-09-07T12:04:51;5.43;;;4.05;;
21337;SDS011;72379;50.880;4.350;2023-09-07T12:07:17;7.80;;;4.55;;
21337;SDS011;72379;50.880;4.350;2023-09-07T12:09:43;5.20;;;4.38;;
21337;SDS011;72379;50.880;4.350;2023-09-07T12:12:09;8.75;;;4.72;;
21337;SDS011;72379;50.880;4.350;2023-09-07T12:14:35;5.28;;;4.60;;
21337;SDS011;72379;50.880;4.350;2023-09-07T12:17:03;9.52;;;4.70;;
21337;SDS011;72379;50.880;4.350;2023-09-07T12:19:28;4.80;;;4.35;;
21337;SDS011;72379;50.880;4.350;2023-09-07T12:21:54;10.15;;;4.53;;
21337;SDS011;72379;50.880;4.350;2023-09-07T12:24:20;8.40;;;5.10;;
21337;SDS011;72379;50.880;4.350;2023-09-07T12:26:46;11.32;;;4.72;;
21337;SDS011;72379;50.880;4.350;2023-09-07T12:29:12;5.53;;;4.70;;
21337;SDS011;72379;50.880;4.350;2023-09-07T12:31:38;13.65;;;5.47;;
21337;SDS011;72379;50.880;4.350;2023-09-07T12:34:04;8.55;;;5.45;;
21337;SDS011;72379;50.880;4.350;2023-09-07T12:36:30;6.47;;;4.38;;
21337;SDS011;72379;50.880;4.350;2023-09-07T12:38:55;6.43;;;4.85;;
21337;SDS011;72379;50.880;4.350;2023-09-07T12:41:27;6.25;;;4.45;;
21337;SDS011;72379;50.880;4.350;2023-09-07T12:43:53;4.85;;;4.30;;
21337;SDS011;72379;50.880;4.350;2023-09-07T12:46:19;8.90;;;5.40;;
21337;SDS011;72379;50.880;4.350;2023-09-07T12:48:44;5.25;;;4.63;;
21337;SDS011;72379;50.880;4.350;2023-09-07T12:51:10;10.63;;;5.63;;
21337;SDS011;72379;50.880;4.350;2023-09-07T12:53:36;9.00;;;5.10;;
21337;SDS011;72379;50.880;4.350;2023-09-07T12:56:01;6.63;;;4.95;;
21337;SDS011;72379;50.880;4.350;2023-09-07T12:58:28;5.75;;;5.25;;
21337;SDS011;72379;50.880;4.350;2023-09-07T13:00:54;6.70;;;5.50;;
21337;SDS011;72379;50.880;4.350;2023-09-07T13:03:20;6.88;;;4.88;;
21337;SDS011;72379;50.880;4.350;2023-09-07T13:05:45;8.45;;;4.97;;
21337;SDS011;72379;50.880;4.350;2023-09-07T13:08:12;7.65;;;4.75;;
21337;SDS011;72379;50.880;4.350;2023-09-07T13:10:38;7.78;;;4.70;;
21337;SDS011;72379;50.880;4.350;2023-09-07T13:13:04;7.65;;;4.97;;
21337;SDS011;72379;50.880;4.350;2023-09-07T13:15:29;5.10;;;4.53;;
21337;SDS011;72379;50.880;4.350;2023-09-07T13:17:55;7.20;;;4.90;;
21337;SDS011;72379;50.880;4.350;2023-09-07T13:20:21;10.90;;;5.35;;
21337;SDS011;72379;50.880;4.350;2023-09-07T13:22:47;6.82;;;4.55;;
21337;SDS011;72379;50.880;4.350;2023-09-07T13:25:13;5.90;;;5.28;;
21337;SDS011;72379;50.880;4.350;2023-09-07T13:27:38;7.75;;;5.57;;
21337;SDS011;72379;50.880;4.350;2023-09-07T13:30:05;8.60;;;4.93;;
21337;SDS011;72379;50.880;4.350;2023-09-07T13:32:33;11.50;;;5.05;;
21337;SDS011;72379;50.880;4.350;2023-09-07T13:34:59;5.60;;;4.72;;
21337;SDS011;72379;50.880;4.350;2023-09-07T13:37:24;9.00;;;5.40;;
21337;SDS011;72379;50.880;4.350;2023-09-07T13:39:50;6.20;;;4.70;;
21337;SDS011;72379;50.880;4.350;2023-09-07T13:42:15;5.97;;;4.95;;
21337;SDS011;72379;50.880;4.350;2023-09-07T13:44:41;8.30;;;4.80;;
21337;SDS011;72379;50.880;4.350;2023-09-07T13:47:07;9.55;;;6.10;;
21337;SDS011;72379;50.880;4.350;2023-09-07T13:49:35;8.80;;;5.13;;
21337;SDS011;72379;50.880;4.350;2023-09-07T13:52:01;9.90;;;5.35;;
21337;SDS011;72379;50.880;4.350;2023-09-07T13:54:26;6.80;;;4.78;;
21337;SDS011;72379;50.880;4.350;2023-09-07T13:56:52;8.15;;;5.93;;
21337;SDS011;72379;50.880;4.350;2023-09-07T13:59:17;8.93;;;4.70;;
21337;SDS011;72379;50.880;4.350;2023-09-07T14:01:44;9.25;;;5.65;;
21337;SDS011;72379;50.880;4.350;2023-09-07T14:04:10;8.27;;;5.53;;
21337;SDS011;72379;50.880;4.350;2023-09-07T14:06:35;7.57;;;5.40;;
21337;SDS011;72379;50.880;4.350;2023-09-07T14:09:01;8.15;;;5.90;;
21337;SDS011;72379;50.880;4.350;2023-09-07T14:11:26;9.73;;;5.65;;
21337;SDS011;72379;50.880;4.350;2023-09-07T14:13:52;8.55;;;6.03;;
21337;SDS011;72379;50.880;4.350;2023-09-07T14:16:19;8.35;;;6.20;;
21337;SDS011;72379;50.880;4.350;2023-09-07T14:18:45;8.60;;;5.35;;
21337;SDS011;72379;50.880;4.350;2023-09-07T14:21:13;7.25;;;5.28;;
21337;SDS011;72379;50.880;4.350;2023-09-07T14:23:39;9.65;;;5.53;;
21337;SDS011;72379;50.880;4.350;2023-09-07T14:26:05;10.30;;;5.75;;
21337;SDS011;72379;50.880;4.350;2023-09-07T14:28:31;10.18;;;5.70;;
21337;SDS011;72379;50.880;4.350;2023-09-07T14:30:57;8.38;;;5.45;;
21337;SDS011;72379;50.880;4.350;2023-09-07T14:33:24;6.03;;;5.10;;
21337;SDS011;72379;50.880;4.350;2023-09-07T14:35:51;8.95;;;5.70;;